createdAt,value
2023-04-22T00:00:33.530Z,13.73
2023-04-22T00:05:36.402Z,10.57
2023-04-22T00:10:40.479Z,11.07
2023-04-22T00:15:43.089Z,10.07
2023-04-22T00:20:46.315Z,12.40
2023-04-22T00:25:50.319Z,8.98
2023-04-22T00:30:54.440Z,10.82
2023-04-22T00:35:57.100Z,11.07
2023-04-22T00:40:59.874Z,13.07
2023-04-22T00:46:02.771Z,9.05
2023-04-22T00:51:23.959Z,13.52
2023-04-22T00:56:28.129Z,10.82
2023-04-22T01:01:32.348Z,11.88
2023-04-22T01:06:54.007Z,11.52
2023-04-22T01:11:57.474Z,12.20
2023-04-22T01:17:00.160Z,9.45
2023-04-22T01:22:03.349Z,12.27
2023-04-22T01:27:06.237Z,11.57
2023-04-22T01:32:08.791Z,10.07
2023-04-22T01:37:11.422Z,12.13
2023-04-22T01:42:15.284Z,9.43
2023-04-22T01:47:19.543Z,13.73
2023-04-22T01:52:29.219Z,12.02
2023-04-22T01:57:33.439Z,11.25
2023-04-22T02:07:39.761Z,11.25
2023-04-22T02:12:45.587Z,8.68
2023-04-22T02:17:50.760Z,13.75
2023-04-22T02:22:53.355Z,10.80
2023-04-22T02:27:56.591Z,12.70
2023-04-22T02:33:05.962Z,15.43
2023-04-22T02:38:08.511Z,17.35
2023-04-22T02:43:11.252Z,18.73
2023-04-22T02:48:13.777Z,15.35
2023-04-22T02:53:18.896Z,11.73
2023-04-22T02:58:21.485Z,12.38
2023-04-22T03:03:24.211Z,17.73
2023-04-22T03:08:26.944Z,10.27
2023-04-22T03:13:29.543Z,16.20
2023-04-22T03:18:32.110Z,15.43
2023-04-22T03:23:36.641Z,12.40
2023-04-22T03:28:40.420Z,13.35
2023-04-22T03:33:43.493Z,14.13
2023-04-22T03:38:54.588Z,16.23
2023-04-22T03:44:01.687Z,13.55
2023-04-22T03:49:25.032Z,9.75
2023-04-22T03:54:32.336Z,10.70
2023-04-22T03:59:35.122Z,12.93
2023-04-22T04:04:38.338Z,12.48
2023-04-22T04:14:49.251Z,12.27
2023-04-22T04:19:55.688Z,9.80
2023-04-22T04:24:59.054Z,10.13
2023-04-22T04:30:08.596Z,12.48
2023-04-22T04:40:30.383Z,16.58
2023-04-22T04:45:50.109Z,14.55
2023-04-22T04:50:59.738Z,19.43
2023-04-22T04:56:05.564Z,12.80
2023-04-22T05:01:09.336Z,18.80
2023-04-22T05:11:43.354Z,25.58
2023-04-22T05:16:52.369Z,18.67
2023-04-22T05:21:58.079Z,20.25
2023-04-22T05:27:02.114Z,18.77
2023-04-22T05:32:19.918Z,22.05
2023-04-22T05:37:23.028Z,19.85
2023-04-22T05:42:26.687Z,17.90
2023-04-22T05:47:30.542Z,26.15
2023-04-22T05:52:34.455Z,30.60
2023-04-22T05:57:45.011Z,28.23
2023-04-22T06:03:14.321Z,34.25
2023-04-22T06:08:17.822Z,40.42
2023-04-22T06:13:20.577Z,48.55
2023-04-22T06:18:23.299Z,47.00
2023-04-22T06:23:26.175Z,51.90
2023-04-22T06:28:30.244Z,59.92
2023-04-22T06:33:37.077Z,72.65
2023-04-22T06:38:39.753Z,83.93
2023-04-22T06:44:04.911Z,109.93
2023-04-22T06:49:10.599Z,160.10
2023-04-22T06:54:28.309Z,247.27
2023-04-22T06:59:31.271Z,283.48
2023-04-22T07:04:34.128Z,294.58
2023-04-22T07:09:38.561Z,357.92
2023-04-22T07:14:46.273Z,372.45
2023-04-22T07:19:50.185Z,384.60
2023-04-22T07:24:52.887Z,385.10
2023-04-22T07:29:55.706Z,406.25
2023-04-22T07:34:58.769Z,418.58
2023-04-22T07:40:01.294Z,407.25
2023-04-22T07:45:07.517Z,411.42
2023-04-22T07:50:13.182Z,332.38
2023-04-22T07:55:16.438Z,343.13
2023-04-22T08:00:19.205Z,330.50
2023-04-22T08:05:25.652Z,307.73
2023-04-22T08:10:28.538Z,235.85
2023-04-22T08:15:31.278Z,203.68
2023-04-22T08:20:33.835Z,192.88
2023-04-22T08:25:37.281Z,154.32
2023-04-22T08:30:39.938Z,114.22
2023-04-22T08:35:42.965Z,98.57
2023-04-22T08:40:47.576Z,81.38
2023-04-22T08:45:50.835Z,46.10
2023-04-22T08:50:54.319Z,34.72
2023-04-22T08:55:57.807Z,34.60
2023-04-22T09:01:01.055Z,35.92
2023-04-22T09:06:07.619Z,33.53
2023-04-22T09:11:11.457Z,30.23
2023-04-22T09:16:15.807Z,32.70
2023-04-22T09:21:18.423Z,27.60
2023-04-22T09:26:27.215Z,28.90
2023-04-22T09:31:30.450Z,28.75
2023-04-22T09:36:39.530Z,23.50
2023-04-22T09:41:42.191Z,23.88
2023-04-22T09:46:45.398Z,27.23
2023-04-22T09:51:49.761Z,27.50
2023-04-22T09:56:55.078Z,26.83
2023-04-22T10:02:04.327Z,27.83
2023-04-22T10:07:07.089Z,21.27
2023-04-22T10:12:09.673Z,20.75
2023-04-22T10:17:16.239Z,24.77
2023-04-22T10:22:19.788Z,21.35
2023-04-22T10:27:40.972Z,19.77
2023-04-22T10:32:43.729Z,20.63
2023-04-22T10:37:46.682Z,15.73
2023-04-22T10:42:52.464Z,15.20
2023-04-22T10:48:00.270Z,23.20
2023-04-22T10:53:35.316Z,14.48
2023-04-22T10:58:38.336Z,14.20
2023-04-22T11:03:41.090Z,13.38
2023-04-22T11:08:50.052Z,14.68
2023-04-22T11:13:53.513Z,15.35
2023-04-22T11:18:56.384Z,11.82
2023-04-22T11:24:02.941Z,13.70
2023-04-22T11:29:06.561Z,12.88
2023-04-22T11:34:09.810Z,12.52
2023-04-22T11:39:16.187Z,14.80
2023-04-22T11:44:23.718Z,20.50
2023-04-22T11:49:30.254Z,19.40
2023-04-22T11:54:37.702Z,17.10
2023-04-22T11:59:41.073Z,15.13
2023-04-22T12:04:45.827Z,19.75
2023-04-22T12:09:54.387Z,18.73
2023-04-22T12:14:58.225Z,22.17
2023-04-22T12:25:03.604Z,22.70
2023-04-22T12:30:06.883Z,31.00
2023-04-22T12:35:09.618Z,26.63
2023-04-22T12:40:12.581Z,27.20
2023-04-22T12:45:16.863Z,27.48
2023-04-22T12:50:20.635Z,26.50
2023-04-22T12:55:24.847Z,24.77
2023-04-22T13:05:30.114Z,25.67
2023-04-22T13:10:35.665Z,27.92
2023-04-22T13:15:39.641Z,30.38
2023-04-22T13:20:42.726Z,23.65
2023-04-22T13:25:45.590Z,24.57
2023-04-22T13:30:54.090Z,28.20
2023-04-22T13:35:58.230Z,23.80
2023-04-22T13:41:03.445Z,24.30
2023-04-22T13:46:06.345Z,25.30
2023-04-22T13:51:09.390Z,21.40
2023-04-22T13:56:12.804Z,24.05
2023-04-22T14:01:16.078Z,28.52
2023-04-22T14:06:19.092Z,26.15
2023-04-22T14:11:21.775Z,23.95
2023-04-22T14:16:24.641Z,25.70
2023-04-22T14:21:30.230Z,24.23
2023-04-22T14:26:33.828Z,26.88
2023-04-22T14:31:38.778Z,21.92
2023-04-22T14:36:44.196Z,24.20
2023-04-22T14:41:48.615Z,27.08
2023-04-22T14:46:51.339Z,29.85
2023-04-22T14:51:54.074Z,28.73
2023-04-22T14:56:58.650Z,29.77
2023-04-22T15:02:08.977Z,29.83
2023-04-22T15:07:11.578Z,27.75
2023-04-22T15:12:17.817Z,25.27
2023-04-22T15:17:21.133Z,27.38
2023-04-22T15:22:25.189Z,23.87
2023-04-22T15:27:28.041Z,23.48
2023-04-22T15:32:31.242Z,25.17
2023-04-22T15:37:33.882Z,23.38
2023-04-22T15:42:36.453Z,23.73
2023-04-22T15:47:41.177Z,26.20
2023-04-22T15:52:44.018Z,22.58
2023-04-22T15:57:46.686Z,25.35
2023-04-22T16:02:55.829Z,31.80
2023-04-22T16:07:58.706Z,26.00
2023-04-22T16:13:03.664Z,32.78
2023-04-22T16:18:06.920Z,34.20
2023-04-22T16:23:09.421Z,37.50
2023-04-22T16:28:12.656Z,28.75
2023-04-22T16:33:17.035Z,26.25
2023-04-22T16:43:23.646Z,30.70
2023-04-22T16:48:26.330Z,38.05
2023-04-22T16:53:29.133Z,36.90
2023-04-22T16:58:32.576Z,36.37
2023-04-22T17:03:36.773Z,42.95
2023-04-22T17:13:44.045Z,39.28
2023-04-22T17:18:47.160Z,43.75
2023-04-22T17:23:51.222Z,39.75
2023-04-22T17:28:53.995Z,47.35
2023-04-22T17:33:56.648Z,38.30
2023-04-22T17:39:01.211Z,40.28
2023-04-22T17:44:04.597Z,39.28
2023-04-22T17:49:07.399Z,35.00
2023-04-22T17:54:11.390Z,39.15
2023-04-22T17:59:14.521Z,31.27
2023-04-22T18:04:19.213Z,33.88
2023-04-22T18:09:22.369Z,29.02
2023-04-22T18:14:26.717Z,35.30
2023-04-22T18:19:30.502Z,35.15
2023-04-22T18:24:33.116Z,45.40
2023-04-22T18:29:36.923Z,37.03
2023-04-22T18:34:40.935Z,43.15
2023-04-22T18:40:05.926Z,35.72
2023-04-22T18:45:13.443Z,40.75
2023-04-22T18:50:16.057Z,46.67
